Time;durP1;ratioP1;P1;durP2;ratioP2;P2;SDS_P1;SDS_P2;PMS_P1;PMS_P2;Temp;Humidity;BMP_temperature;BMP_pressure;BME280_temperature;BME280_humidity;BME280_pressure;Samples;Min_cycle;Max_cycle;Signal;HPM_P1;HPM_P2
2023/11/04 00:01:46;;;;;;;;;4.25;3.00;;;;;11.43;68.90;98425.66;5078982;28;73206;-68
2023/11/04 00:04:11;;;;;;;;;6.50;3.00;;;;;11.44;68.99;98420.34;5078140;28;45740;-69
2023/11/04 00:06:36;;;;;;;;;1.75;1.50;;;;;11.44;69.25;98409.84;5075378;28;71929;-69
2023/11/04 00:09:02;;;;;;;;;6.00;3.00;;;;;11.49;68.96;98413.00;5040661;28;49047;-68
2023/11/04 00:11:27;;;;;;;;;3.00;2.50;;;;;11.50;69.36;98409.44;5079469;28;45458;-68
2023/11/04 00:13:53;;;;;;;;;33.75;23.75;;;;;11.53;69.09;98408.41;5058085;28;68265;-69
2023/11/04 00:16:18;;;;;;;;;18.25;12.50;;;;;11.54;68.83;98396.97;5078815;28;47130;-69
2023/11/04 00:18:46;;;;;;;;;5.50;2.75;;;;;11.59;68.87;98398.31;5059981;28;46645;-69
2023/11/04 00:21:12;;;;;;;;;4.75;2.00;;;;;11.55;68.56;98389.00;5057812;28;45346;-69
2023/11/04 00:23:38;;;;;;;;;3.00;2.00;;;;;11.58;68.70;98388.78;5073362;28;45480;-68
2023/11/04 00:26:03;;;;;;;;;6.00;3.50;;;;;11.60;69.51;98396.56;5076804;28;45483;-69
2023/11/04 00:28:31;;;;;;;;;3.75;2.25;;;;;11.60;68.63;98393.94;5078054;28;45439;-68
2023/11/04 00:30:56;;;;;;;;;4.75;2.50;;;;;11.61;68.77;98389.53;5078763;28;45336;-68
2023/11/04 00:33:21;;;;;;;;;3.00;3.00;;;;;11.63;69.08;98392.88;5059995;28;45778;-68
2023/11/04 00:35:47;;;;;;;;;6.75;3.00;;;;;11.63;68.66;98380.59;5059650;28;52681;-69
2023/11/04 00:38:12;;;;;;;;;4.00;4.00;;;;;11.66;68.85;98371.72;5078127;28;46805;-69
2023/11/04 00:40:37;;;;;;;;;18.75;16.50;;;;;11.65;69.08;98373.50;5060022;28;45423;-69
2023/11/04 00:43:03;;;;;;;;;7.25;5.25;;;;;11.65;68.95;98377.88;5054101;28;69089;-68
2023/11/04 00:45:28;;;;;;;;;5.00;3.50;;;;;11.63;69.28;98370.13;5077551;28;45549;-69
2023/11/04 00:47:54;;;;;;;;;6.00;3.00;;;;;11.59;68.87;98374.75;5058167;28;47815;-69
2023/11/04 00:50:19;;;;;;;;;13.50;8.50;;;;;11.54;68.61;98366.38;5060635;28;69732;-68
2023/11/04 00:52:45;;;;;;;;;6.00;3.75;;;;;11.53;69.39;98376.97;5080064;28;45871;-69
2023/11/04 00:55:10;;;;;;;;;5.25;3.50;;;;;11.51;68.82;98373.59;5081866;28;45434;-69
2023/11/04 00:57:35;;;;;;;;;4.25;3.00;;;;;11.51;68.85;98373.59;5081207;28;45380;-68
2023/11/04 01:00:00;;;;;;;;;6.50;2.25;;;;;11.48;68.87;98364.19;5057066;28;69675;-68
2023/11/04 01:02:26;;;;;;;;;5.75;3.00;;;;;11.46;69.39;98362.63;5080680;28;45465;-69
2023/11/04 01:04:52;;;;;;;;;10.00;3.25;;;;;11.43;69.25;98350.56;5080883;28;45373;-69
2023/11/04 01:07:18;;;;;;;;;5.25;3.00;;;;;11.44;69.23;98356.63;5078619;28;46656;-68
2023/11/04 01:09:43;;;;;;;;;4.00;3.00;;;;;11.39;69.54;98347.31;5062012;28;46155;-69
2023/11/04 01:12:08;;;;;;;;;5.50;3.00;;;;;11.36;68.88;98341.44;5062472;28;46569;-69
2023/11/04 01:14:35;;;;;;;;;4.50;2.75;;;;;11.33;68.95;98349.50;5059374;28;45454;-68
2023/11/04 01:17:00;;;;;;;;;4.25;2.75;;;;;11.29;69.29;98346.25;5055397;28;46371;-69
2023/11/04 01:19:26;;;;;;;;;3.50;3.25;;;;;11.21;69.52;98333.69;5058597;28;51182;-68
2023/11/04 01:21:51;;;;;;;;;3.75;2.00;;;;;11.27;69.64;98342.91;5062393;28;45368;-69
2023/11/04 01:24:16;;;;;;;;;3.50;2.50;;;;;11.25;69.58;98343.97;5078667;28;73555;-68
2023/11/04 01:26:42;;;;;;;;;4.25;3.00;;;;;11.21;69.70;98338.09;5062563;28;47008;-68
2023/11/04 01:29:10;;;;;;;;;3.00;2.00;;;;;11.20;69.34;98339.88;5076336;28;73317;-69
2023/11/04 01:31:36;;;;;;;;;5.00;2.00;;;;;11.19;69.45;98330.34;5062102;28;45462;-69
2023/11/04 01:34:01;;;;;;;;;5.25;3.00;;;;;11.19;69.43;98321.63;5058305;28;45717;-68
2023/11/04 01:36:27;;;;;;;;;9.50;5.00;;;;;11.17;69.49;98319.16;5071883;28;73398;-68
2023/11/04 01:38:52;;;;;;;;;5.25;3.75;;;;;11.14;69.52;98310.69;5062609;28;45510;-68
2023/11/04 01:41:18;;;;;;;;;6.25;3.00;;;;;11.16;69.67;98314.84;5060104;28;46217;-68
2023/11/04 01:43:43;;;;;;;;;4.25;2.00;;;;;11.18;69.82;98325.22;5043192;28;46113;-68
2023/11/04 01:46:11;;;;;;;;;6.75;3.00;;;;;11.17;69.84;98324.41;5078503;28;45478;-68
2023/11/04 01:48:38;;;;;;;;;3.00;2.00;;;;;11.16;69.59;98311.41;5076431;28;45934;-68
2023/11/04 01:51:04;;;;;;;;;6.00;2.00;;;;;11.14;69.31;98315.91;5058604;28;45327;-68
2023/11/04 01:53:30;;;;;;;;;3.25;2.75;;;;;11.08;69.83;98298.00;5081265;28;45490;-68
2023/11/04 01:55:55;;;;;;;;;3.25;2.25;;;;;11.08;69.34;98300.59;5062118;28;45925;-68
2023/11/04 01:58:21;;;;;;;;;5.50;2.25;;;;;11.06;69.52;98303.31;5076326;28;73283;-69
2023/11/04 02:00:47;;;;;;;;;3.00;2.25;;;;;11.02;69.81;98307.09;5056595;28;68739;-68
2023/11/04 02:03:12;;;;;;;;;5.25;3.00;;;;;11.01;69.78;98301.03;5062118;28;45668;-69
2023/11/04 02:05:37;;;;;;;;;4.00;3.00;;;;;11.02;69.81;98301.88;5080131;28;64849;-69
2023/11/04 02:08:03;;;;;;;;;5.00;3.00;;;;;10.98;70.12;98293.38;5043812;28;66463;-68
2023/11/04 02:10:28;;;;;;;;;3.00;2.00;;;;;11.01;69.80;98302.78;5079402;28;57229;-68
2023/11/04 02:12:53;;;;;;;;;2.25;1.00;;;;;11.04;69.92;98296.53;5077585;28;45415;-68
2023/11/04 02:15:20;;;;;;;;;5.75;2.75;;;;;11.05;69.79;98293.81;5061271;28;74386;-67
2023/11/04 02:17:46;;;;;;;;;4.00;2.00;;;;;11.07;69.74;98288.47;5081451;28;45383;-68
2023/11/04 02:20:13;;;;;;;;;3.50;2.25;;;;;11.06;70.00;98277.16;5076785;28;45386;-69
2023/11/04 02:22:39;;;;;;;;;5.50;3.00;;;;;11.08;69.73;98269.19;5060618;28;45460;-69
2023/11/04 02:25:04;;;;;;;;;4.75;3.00;;;;;11.09;69.71;98248.16;5061667;28;73994;-68
2023/11/04 02:27:30;;;;;;;;;4.00;3.00;;;;;11.08;69.82;98236.00;5056712;28;45898;-69
2023/11/04 02:29:56;;;;;;;;;3.75;3.00;;;;;11.11;70.00;98237.59;5058570;28;45450;-68
2023/11/04 02:32:21;;;;;;;;;6.25;2.00;;;;;11.11;69.44;98232.34;5079741;28;45387;-69
2023/11/04 02:34:46;;;;;;;;;4.00;2.00;;;;;11.13;69.84;98233.91;5059034;28;72835;-68
2023/11/04 02:37:12;;;;;;;;;5.75;2.50;;;;;11.11;69.70;98220.09;5081425;28;45246;-69
2023/11/04 02:39:37;;;;;;;;;3.25;1.50;;;;;11.10;69.46;98221.06;5078253;28;45446;-68
2023/11/04 02:42:02;;;;;;;;;6.00;3.00;;;;;11.10;69.97;98212.34;5074947;28;45610;-69
2023/11/04 02:44:28;;;;;;;;;3.25;2.25;;;;;11.09;69.67;98195.00;5055821;28;77001;-68
2023/11/04 02:46:53;;;;;;;;;2.75;2.00;;;;;11.11;69.70;98190.47;5078695;28;45460;-69
2023/11/04 02:49:19;;;;;;;;;5.25;2.00;;;;;11.08;69.25;98175.81;5078474;28;45378;-69
2023/11/04 02:51:45;;;;;;;;;3.00;2.00;;;;;11.06;69.40;98176.88;5058628;28;45592;-69
2023/11/04 02:54:10;;;;;;;;;4.00;2.00;;;;;11.09;69.37;98180.09;5078730;28;74244;-69
2023/11/04 02:56:36;;;;;;;;;6.75;2.00;;;;;11.12;69.37;98179.03;5058580;28;45391;-67
2023/11/04 02:59:01;;;;;;;;;1.50;1.50;;;;;11.13;69.75;98170.25;5078671;28;45515;-68
2023/11/04 03:01:27;;;;;;;;;4.75;3.00;;;;;11.13;69.37;98170.25;5077421;28;73293;-68
2023/11/04 03:03:53;;;;;;;;;3.50;3.00;;;;;11.14;69.46;98159.69;5068101;28;48230;-68
2023/11/04 03:06:24;;;;;;;;;2.50;2.00;;;;;11.14;69.16;98151.84;5079371;28;45277;-69
2023/11/04 03:08:50;;;;;;;;;3.50;3.00;;;;;11.15;69.11;98145.63;5074854;28;45426;-68
2023/11/04 03:11:15;;;;;;;;;4.25;2.00;;;;;11.14;69.27;98138.75;5079093;28;45486;-69
2023/11/04 03:13:41;;;;;;;;;2.50;2.50;;;;;11.10;69.02;98128.59;5057285;28;45787;-68
2023/11/04 03:16:07;;;;;;;;;4.00;2.75;;;;;11.08;69.15;98133.94;5060441;28;45511;-69
2023/11/04 03:18:32;;;;;;;;;8.00;2.00;;;;;11.05;69.16;98117.59;5060040;28;45343;-69
2023/11/04 03:20:57;;;;;;;;;5.00;3.00;;;;;11.01;69.41;98111.75;5078112;28;71773;-68
2023/11/04 03:23:23;;;;;;;;;4.25;3.00;;;;;10.97;69.26;98112.94;5075909;28;75563;-68
2023/11/04 03:25:48;;;;;;;;;3.00;2.00;;;;;10.96;69.13;98109.50;5061360;28;45343;-68
2023/11/04 03:28:14;;;;;;;;;4.25;2.00;;;;;10.95;69.16;98113.03;5073575;28;45264;-68
2023/11/04 03:30:39;;;;;;;;;3.00;2.00;;;;;10.96;69.21;98109.50;5060687;28;53201;-68
2023/11/04 03:33:05;;;;;;;;;2.25;2.25;;;;;10.95;69.30;98092.09;5076739;28;45277;-68
2023/11/04 03:35:30;;;;;;;;;4.00;2.25;;;;;10.94;69.26;98086.97;5078729;28;45418;-68
2023/11/04 03:37:55;;;;;;;;;4.25;1.75;;;;;10.94;69.31;98093.06;5079363;28;45251;-69
2023/11/04 03:40:21;;;;;;;;;3.00;2.00;;;;;10.94;69.34;98072.13;5072601;28;45454;-68
2023/11/04 03:42:46;;;;;;;;;4.00;2.00;;;;;10.92;69.34;98073.16;5076814;28;67383;-69
2023/11/04 03:45:11;;;;;;;;;2.00;2.00;;;;;10.94;69.26;98073.88;5050525;28;45301;-69
2023/11/04 03:47:37;;;;;;;;;3.25;1.00;;;;;10.94;69.36;98069.50;5073583;28;68842;-68
2023/11/04 03:50:03;;;;;;;;;3.75;2.00;;;;;10.94;69.17;98066.91;5056021;28;75030;-68
2023/11/04 03:52:28;;;;;;;;;4.00;1.50;;;;;10.90;69.40;98054.97;5075286;28;46361;-68
2023/11/04 03:54:53;;;;;;;;;2.75;2.25;;;;;10.94;69.43;98066.03;5076719;28;72319;-69
2023/11/04 03:57:19;;;;;;;;;3.75;2.00;;;;;10.95;69.41;98052.84;5075009;28;61864;-69
2023/11/04 03:59:44;;;;;;;;;4.25;2.00;;;;;10.96;69.43;98045.81;5058582;28;60695;-69
2023/11/04 04:02:10;;;;;;;;;2.50;1.75;;;;;10.95;69.63;98039.78;5072832;28;75008;-68
2023/11/04 04:04:35;;;;;;;;;8.00;2.00;;;;;10.98;69.44;98038.72;5078101;28;45383;-68
2023/11/04 04:07:00;;;;;;;;;4.75;1.00;;;;;11.00;69.63;98026.38;5078070;28;45449;-68
2023/11/04 04:09:27;;;;;;;;;4.50;2.50;;;;;11.00;69.62;98019.34;5057228;28;65749;-68
2023/11/04 04:11:53;;;;;;;;;5.25;2.00;;;;;10.99;69.54;97996.72;5057419;28;48428;-69
2023/11/04 04:14:18;;;;;;;;;7.00;2.50;;;;;11.02;70.02;97996.50;5042524;28;53150;-69
2023/11/04 04:16:45;;;;;;;;;6.25;2.00;;;;;11.07;69.62;97988.34;5070325;28;45437;-68
2023/11/04 04:19:10;;;;;;;;;3.75;3.75;;;;;11.10;69.72;97980.25;5078437;28;45431;-69
2023/11/04 04:21:38;;;;;;;;;4.75;2.25;;;;;11.09;69.73;97964.66;5077326;28;46661;-69
2023/11/04 04:24:04;;;;;;;;;2.75;2.25;;;;;11.10;69.68;97950.63;5069813;28;71865;-68
2023/11/04 04:26:30;;;;;;;;;3.75;2.75;;;;;11.12;69.44;97944.34;5074862;28;45443;-69
2023/11/04 04:28:56;;;;;;;;;4.75;0.50;;;;;11.14;69.47;97939.81;5047292;28;45633;-69
2023/11/04 04:31:23;;;;;;;;;5.75;3.75;;;;;11.17;69.62;97918.66;5078465;28;47028;-69
2023/11/04 04:33:49;;;;;;;;;5.25;3.00;;;;;11.21;69.64;97919.25;5076810;28;45786;-68
2023/11/04 04:36:14;;;;;;;;;5.00;2.00;;;;;11.21;69.89;97914.84;5077085;28;45327;-68
2023/11/04 04:38:39;;;;;;;;;3.75;2.00;;;;;11.22;69.81;97902.59;5075824;28;75106;-68
2023/11/04 04:41:04;;;;;;;;;1.50;1.50;;;;;11.24;69.77;97900.69;5054168;28;74549;-67
2023/11/04 04:43:30;;;;;;;;;2.00;1.50;;;;;11.24;69.81;97905.09;5074156;28;45541;-68
2023/11/04 04:45:55;;;;;;;;;1.00;1.00;;;;;11.22;69.59;97881.66;5033011;28;45333;-69
2023/11/04 04:48:21;;;;;;;;;4.00;2.00;;;;;11.26;69.77;97877.00;5059327;28;60822;-67
2023/11/04 04:50:46;;;;;;;;;3.00;1.50;;;;;11.26;69.37;97863.94;5075694;28;47042;-68
2023/11/04 04:53:11;;;;;;;;;6.00;2.00;;;;;11.25;69.89;97851.81;5060553;28;45445;-68
2023/11/04 04:55:37;;;;;;;;;7.75;2.00;;;;;11.23;69.32;97859.78;5072682;28;45436;-67
2023/11/04 04:58:02;;;;;;;;;5.50;1.50;;;;;11.24;69.68;97865.84;5078263;28;60508;-69
2023/11/04 05:00:27;;;;;;;;;3.00;1.00;;;;;11.24;69.63;97864.03;5058514;28;68682;-68
2023/11/04 05:02:53;;;;;;;;;2.00;1.00;;;;;11.24;69.71;97861.41;5076565;28;45450;-68
2023/11/04 05:05:18;;;;;;;;;1.75;1.00;;;;;11.26;69.44;97841.22;5075096;28;51924;-68
2023/11/04 05:07:44;;;;;;;;;2.00;1.75;;;;;11.28;69.30;97833.22;5077084;28;45298;-68
2023/11/04 05:10:10;;;;;;;;;1.00;1.00;;;;;11.27;69.74;97842.03;5077128;28;46144;-69
2023/11/04 05:12:36;;;;;;;;;4.00;1.00;;;;;11.28;69.37;97848.94;5056801;28;45368;-69
2023/11/04 05:15:02;;;;;;;;;7.25;2.00;;;;;11.28;69.94;97847.16;5061502;28;45421;-67
2023/11/04 05:17:27;;;;;;;;;3.00;2.00;;;;;11.26;69.41;97819.44;5060148;28;45684;-68
2023/11/04 05:19:55;;;;;;;;;3.00;2.00;;;;;11.25;69.67;97809.94;5041736;28;47300;-68
2023/11/04 05:22:21;;;;;;;;;2.75;1.00;;;;;11.26;69.65;97808.94;5059080;28;45392;-68
2023/11/04 05:24:46;;;;;;;;;1.00;1.00;;;;;11.24;69.75;97806.44;5077094;28;45497;-68
2023/11/04 05:27:11;;;;;;;;;1.50;1.00;;;;;11.23;69.95;97811.84;5072340;28;49098;-67
2023/11/04 05:29:37;;;;;;;;;3.75;1.00;;;;;11.26;70.67;97816.81;5073355;28;45345;-67
2023/11/04 05:32:02;;;;;;;;;2.25;1.00;;;;;11.26;71.67;97819.44;5057354;28;45575;-68
2023/11/04 05:34:28;;;;;;;;;3.50;2.00;;;;;11.19;71.53;97825.16;5058743;28;45316;-68
2023/11/04 05:36:53;;;;;;;;;2.25;0.75;;;;;11.13;71.37;97815.13;5060585;28;72072;-68
2023/11/04 05:39:18;;;;;;;;;2.00;1.25;;;;;11.12;71.70;97812.63;5042088;28;77862;-68
2023/11/04 05:41:44;;;;;;;;;5.00;1.00;;;;;11.10;71.07;97789.22;5077265;28;54227;-67
2023/11/04 05:44:09;;;;;;;;;3.00;0.00;;;;;11.08;72.56;97779.78;5080772;28;45430;-68
2023/11/04 05:46:35;;;;;;;;;1.75;1.00;;;;;11.02;72.57;97774.06;5080325;28;45442;-68
2023/11/04 05:49:00;;;;;;;;;0.00;0.00;;;;;11.01;71.86;97766.34;5060574;28;46269;-67
2023/11/04 05:51:26;;;;;;;;;1.75;0.25;;;;;10.95;71.72;97759.78;5080734;28;45288;-69
2023/11/04 05:53:52;;;;;;;;;1.00;1.00;;;;;10.94;72.28;97746.81;5080246;28;45339;-68
2023/11/04 05:56:18;;;;;;;;;3.00;0.00;;;;;10.95;71.82;97751.13;5075554;28;45524;-68
2023/11/04 05:58:43;;;;;;;;;1.00;0.00;;;;;10.96;71.90;97747.53;5078313;28;46305;-68
2023/11/04 06:01:08;;;;;;;;;2.50;1.50;;;;;10.98;71.87;97737.81;5077172;28;45883;-69
2023/11/04 06:03:37;;;;;;;;;1.50;1.00;;;;;10.99;72.26;97721.97;5055934;28;45300;-69
2023/11/04 06:06:02;;;;;;;;;3.50;0.75;;;;;11.00;73.15;97705.34;5078416;28;45561;-69
2023/11/04 06:08:28;;;;;;;;;2.00;1.50;;;;;11.00;73.14;97702.72;5058548;28;45304;-67
2023/11/04 06:10:53;;;;;;;;;4.25;1.00;;;;;10.96;73.64;97684.75;5080114;28;46115;-68
2023/11/04 06:13:19;;;;;;;;;2.00;1.25;;;;;10.96;74.74;97685.59;5072086;28;62550;-68
2023/11/04 06:15:44;;;;;;;;;1.75;1.00;;;;;10.89;74.82;97668.72;5060380;28;45418;-68
2023/11/04 06:18:09;;;;;;;;;3.00;0.50;;;;;10.93;74.68;97671.94;5078933;28;75689;-69
2023/11/04 06:20:35;;;;;;;;;2.00;0.00;;;;;10.90;75.76;97661.69;5076251;28;72175;-68
2023/11/04 06:23:00;;;;;;;;;2.25;1.25;;;;;10.88;74.52;97637.44;5080192;28;45652;-69
2023/11/04 06:25:25;;;;;;;;;1.00;1.00;;;;;10.86;74.18;97628.88;5058355;28;45537;-68
2023/11/04 06:27:51;;;;;;;;;4.00;1.00;;;;;10.86;74.14;97614.00;5079704;28;45993;-69
2023/11/04 06:30:16;;;;;;;;;1.00;1.00;;;;;10.85;74.16;97601.03;5061576;28;73008;-69
2023/11/04 06:32:41;;;;;;;;;1.00;0.25;;;;;10.85;73.85;97591.41;5079363;28;45532;-68
2023/11/04 06:35:07;;;;;;;;;1.00;1.00;;;;;10.85;74.94;97577.50;5078273;28;72545;-69
2023/11/04 06:37:32;;;;;;;;;2.75;1.00;;;;;10.85;75.05;97572.28;5079967;28;48726;-69
2023/11/04 06:39:58;;;;;;;;;2.75;0.00;;;;;10.84;75.47;97563.59;5062338;28;46984;-71
2023/11/04 06:42:26;;;;;;;;;0.25;0.00;;;;;10.83;74.89;97552.28;5078497;28;68397;-68
2023/11/04 06:44:53;;;;;;;;;3.50;0.00;;;;;10.82;75.48;97553.25;5046711;28;45530;-69
2023/11/04 06:47:19;;;;;;;;;4.50;1.50;;;;;10.79;74.58;97542.19;5075706;28;46230;-69
2023/11/04 06:49:44;;;;;;;;;1.00;0.00;;;;;10.78;75.50;97532.69;5059390;28;45546;-69
2023/11/04 06:52:10;;;;;;;;;1.25;0.00;;;;;10.74;74.57;97512.97;5077838;28;45517;-69
2023/11/04 06:54:36;;;;;;;;;1.75;0.00;;;;;10.74;75.01;97502.50;5061522;28;45337;-69
2023/11/04 06:57:01;;;;;;;;;0.50;0.25;;;;;10.73;75.27;97483.38;5078268;28;46376;-68
2023/11/04 06:59:26;;;;;;;;;4.50;0.00;;;;;10.80;74.78;97465.38;5079611;28;58947;-69
2023/11/04 07:01:52;;;;;;;;;3.00;0.50;;;;;10.79;74.65;97435.78;5079786;28;50960;-69
2023/11/04 07:04:18;;;;;;;;;2.00;0.00;;;;;10.80;74.38;97447.91;5060318;28;45593;-70
2023/11/04 07:06:44;;;;;;;;;1.00;0.00;;;;;10.82;74.90;97437.34;5077342;28;45977;-68
2023/11/04 07:09:10;;;;;;;;;1.00;0.00;;;;;10.81;74.70;97430.44;5059278;28;45360;-68
2023/11/04 07:11:36;;;;;;;;;2.00;0.00;;;;;10.83;75.65;97418.06;5059601;28;45368;-68
2023/11/04 07:14:01;;;;;;;;;2.75;1.00;;;;;10.83;74.84;97416.25;5059664;28;45356;-68
2023/11/04 07:16:26;;;;;;;;;1.25;1.00;;;;;10.82;75.02;97395.50;5043917;28;46983;-69
2023/11/04 07:18:52;;;;;;;;;5.50;0.75;;;;;10.82;79.18;97379.78;5078649;28;56772;-68
2023/11/04 07:21:19;;;;;;;;;1.50;0.00;;;;;10.72;81.33;97361.41;5060716;28;45789;-69
2023/11/04 07:23:44;;;;;;;;;2.75;0.00;;;;;10.66;80.98;97356.69;5079397;28;45509;-68
2023/11/04 07:26:10;;;;;;;;;1.00;1.00;;;;;10.63;78.65;97342.06;5079456;28;50454;-68
2023/11/04 07:28:35;;;;;;;;;1.00;0.50;;;;;10.65;77.37;97326.25;5061300;28;45379;-68
2023/11/04 07:31:04;;;;;;;;;1.00;1.00;;;;;10.66;77.33;97322.69;5077827;28;45433;-68
2023/11/04 07:33:29;;;;;;;;;1.00;0.00;;;;;10.66;78.20;97301.75;5073116;28;45549;-68
2023/11/04 07:35:55;;;;;;;;;2.00;0.00;;;;;10.66;76.79;97288.69;5077956;28;45486;-68
2023/11/04 07:38:20;;;;;;;;;1.00;0.00;;;;;10.64;77.28;97280.13;5060992;28;45405;-69
2023/11/04 07:40:46;;;;;;;;;3.00;0.00;;;;;10.68;77.60;97273.69;5076973;28;49594;-68
2023/11/04 07:43:12;;;;;;;;;1.00;1.00;;;;;10.68;76.91;97278.06;5078068;28;45457;-69
2023/11/04 07:45:37;;;;;;;;;1.00;0.00;;;;;10.70;76.77;97263.13;5076242;28;75322;-67
2023/11/04 07:48:04;;;;;;;;;0.50;0.00;;;;;10.68;78.32;97251.94;5077647;28;45474;-67
2023/11/04 07:50:30;;;;;;;;;2.00;1.00;;;;;10.66;78.57;97252.09;5057775;28;45416;-67
2023/11/04 07:52:55;;;;;;;;;0.50;0.00;;;;;10.65;77.83;97245.19;5078563;28;45450;-67
2023/11/04 07:55:21;;;;;;;;;2.25;0.00;;;;;10.60;77.72;97229.88;5070575;28;75673;-68
2023/11/04 07:57:47;;;;;;;;;1.25;1.00;;;;;10.59;78.26;97207.31;5074216;28;45637;-68
2023/11/04 08:00:13;;;;;;;;;2.50;1.00;;;;;10.60;78.77;97201.09;5074610;28;45422;-68
2023/11/04 08:02:38;;;;;;;;;0.00;0.00;;;;;10.61;80.38;97207.19;5076113;28;45539;-68
2023/11/04 08:05:05;;;;;;;;;1.00;0.00;;;;;10.58;79.75;97176.06;5077619;28;53487;-67
2023/11/04 08:07:30;;;;;;;;;1.00;0.00;;;;;10.56;82.17;97172.75;5075970;28;46059;-67
2023/11/04 08:09:59;;;;;;;;;0.00;0.00;;;;;10.56;83.07;97191.06;5075698;28;69416;-68
2023/11/04 08:12:24;;;;;;;;;3.00;0.25;;;;;10.53;83.52;97186.88;5066690;28;45549;-67
2023/11/04 08:14:49;;;;;;;;;1.00;0.00;;;;;10.50;81.76;97154.94;5060837;28;45728;-66
2023/11/04 08:17:15;;;;;;;;;0.50;0.50;;;;;10.49;81.61;97133.22;5077391;28;61944;-67
2023/11/04 08:19:41;;;;;;;;;7.50;2.00;;;;;10.44;81.40;97110.06;5059027;28;45371;-67
2023/11/04 08:22:07;;;;;;;;;4.75;1.00;;;;;10.44;81.47;97099.63;5061672;28;45767;-67
2023/11/04 08:24:33;;;;;;;;;0.00;0.00;;;;;10.46;81.86;97094.25;5061129;28;47849;-66
2023/11/04 08:26:58;;;;;;;;;0.00;0.00;;;;;10.45;83.76;97103.06;5075268;28;46204;-67
2023/11/04 08:29:24;;;;;;;;;0.00;0.00;;;;;10.45;83.74;97100.47;5057567;28;45332;-67
2023/11/04 08:31:50;;;;;;;;;2.25;0.00;;;;;10.43;83.06;97087.53;5065709;28;45438;-67
2023/11/04 08:34:15;;;;;;;;;0.00;0.00;;;;;10.47;80.42;97085.47;5074622;28;45400;-67
2023/11/04 08:36:41;;;;;;;;;0.00;0.00;;;;;10.48;79.59;97087.09;5078293;28;45201;-67
2023/11/04 08:39:07;;;;;;;;;0.00;0.00;;;;;10.48;79.67;97087.09;5079291;28;45281;-68
2023/11/04 08:41:32;;;;;;;;;0.00;0.00;;;;;10.55;79.68;97087.41;5077828;28;45414;-68
2023/11/04 08:43:57;;;;;;;;;0.00;0.00;;;;;10.56;79.99;97082.06;5076168;28;45555;-68
2023/11/04 08:46:23;;;;;;;;;0.00;0.00;;;;;10.61;80.34;97084.28;5056544;28;70992;-66
2023/11/04 08:48:48;;;;;;;;;1.00;0.00;;;;;10.62;80.12;97060.63;5049579;28;69276;-68
2023/11/04 08:51:13;;;;;;;;;0.00;0.00;;;;;10.64;80.55;97068.31;5032199;28;57817;-69
2023/11/04 08:53:39;;;;;;;;;1.75;0.00;;;;;10.66;90.59;97055.13;5035849;28;51893;-68
2023/11/04 08:56:06;;;;;;;;;0.00;0.00;;;;;10.72;95.07;97065.88;5043270;28;45378;-69
2023/11/04 08:58:31;;;;;;;;;0.00;0.00;;;;;10.75;84.35;97049.94;5046903;28;45407;-68
2023/11/04 09:00:57;;;;;;;;;0.00;0.00;;;;;10.77;86.58;97042.78;5064721;28;73070;-69
2023/11/04 09:03:25;;;;;;;;;0.00;0.00;;;;;10.90;86.86;97026.00;5055095;28;65429;-69
2023/11/04 09:05:50;;;;;;;;;0.00;0.00;;;;;10.93;87.93;97025.75;5068961;28;45628;-69
2023/11/04 09:08:16;;;;;;;;;1.00;0.00;;;;;10.93;84.47;97029.19;5067415;28;66890;-66
2023/11/04 09:10:42;;;;;;;;;0.00;0.00;;;;;10.86;83.61;97046.38;5037096;28;45583;-69
2023/11/04 09:13:07;;;;;;;;;0.00;0.00;;;;;10.85;83.17;97047.31;5061669;28;46941;-70
2023/11/04 09:15:34;;;;;;;;;1.00;0.00;;;;;10.86;84.52;97029.88;5081927;28;45510;-72
2023/11/04 09:18:00;;;;;;;;;0.00;0.00;;;;;10.88;84.47;97020.09;5061429;28;45455;-69
2023/11/04 09:20:25;;;;;;;;;0.75;0.00;;;;;10.91;85.80;97012.81;5079485;28;45534;-74
2023/11/04 09:22:51;;;;;;;;;0.75;0.00;;;;;10.91;84.67;97019.84;5061168;28;45719;-67
2023/11/04 09:25:16;;;;;;;;;0.00;0.00;;;;;10.95;83.83;97014.19;5046693;28;45431;-67
2023/11/04 09:27:41;;;;;;;;;0.00;0.00;;;;;11.00;84.71;97013.78;5080356;28;45528;-67
2023/11/04 09:30:08;;;;;;;;;0.00;0.00;;;;;11.01;83.02;97008.41;5059548;28;45716;-69
2023/11/04 09:32:34;;;;;;;;;0.00;0.00;;;;;11.06;83.31;97008.00;5079912;28;46077;-70
2023/11/04 09:34:59;;;;;;;;;1.00;0.00;;;;;11.10;82.40;97001.53;5062489;28;45589;-69
2023/11/04 09:37:25;;;;;;;;;0.50;0.00;;;;;11.16;81.89;96992.31;5045173;28;45434;-69
2023/11/04 09:39:51;;;;;;;;;1.00;0.00;;;;;11.20;82.66;96993.69;5081229;28;45405;-70
2023/11/04 09:42:16;;;;;;;;;1.00;0.00;;;;;11.24;81.82;96992.44;5058301;28;46069;-69
2023/11/04 09:44:42;;;;;;;;;0.00;0.00;;;;;11.27;82.30;96996.56;5057484;28;55631;-69
2023/11/04 09:47:07;;;;;;;;;0.00;0.00;;;;;11.30;81.76;96999.75;5060258;28;45434;-68
2023/11/04 09:49:32;;;;;;;;;0.75;0.00;;;;;11.34;82.12;96990.66;5057915;28;60697;-68
2023/11/04 09:52:00;;;;;;;;;0.00;0.00;;;;;11.38;82.62;96981.56;5038736;28;47815;-69
2023/11/04 09:54:27;;;;;;;;;1.00;0.00;;;;;11.41;82.60;96990.91;5058817;28;45462;-72
2023/11/04 09:56:55;;;;;;;;;1.50;0.00;;;;;11.50;81.80;96989.25;5059193;28;45345;-71
2023/11/04 09:59:20;;;;;;;;;0.00;0.00;;;;;11.58;81.34;96987.59;5050035;28;45523;-70
2023/11/04 10:01:46;;;;;;;;;1.75;1.00;;;;;11.67;81.34;96972.00;5057171;28;46542;-69
2023/11/04 10:04:11;;;;;;;;;0.50;0.00;;;;;11.76;80.57;96981.66;5040746;28;45454;-70
2023/11/04 10:06:36;;;;;;;;;0.50;0.50;;;;;11.79;80.09;96981.34;5050166;28;46043;-69
2023/11/04 10:09:02;;;;;;;;;2.00;2.00;;;;;11.87;80.19;96978.84;5055076;28;45516;-70
2023/11/04 10:11:28;;;;;;;;;0.00;0.00;;;;;11.94;79.69;96969.47;5059044;28;46288;-71
2023/11/04 10:13:54;;;;;;;;;0.50;0.50;;;;;12.05;79.65;96965.03;5058103;28;45811;-70
2023/11/04 10:16:22;;;;;;;;;2.00;1.00;;;;;12.14;79.29;96956.31;5060401;28;45370;-69
2023/11/04 10:18:48;;;;;;;;;0.75;0.75;;;;;12.20;79.03;96945.25;5054056;28;45652;-70
2023/11/04 10:21:14;;;;;;;;;2.00;1.00;;;;;12.26;78.88;96949.09;5059563;28;46716;-70
2023/11/04 10:23:39;;;;;;;;;1.75;0.25;;;;;12.28;78.83;96944.50;5056192;28;45345;-69
2023/11/04 10:26:05;;;;;;;;;2.00;0.50;;;;;12.31;78.64;96952.91;5058799;28;45643;-71
2023/11/04 10:28:30;;;;;;;;;2.75;1.00;;;;;12.37;79.31;96938.41;5057010;28;45329;-70
2023/11/04 10:31:03;;;;;;;;;0.25;0.00;;;;;12.42;79.04;96924.84;5060048;28;46264;-70
2023/11/04 10:33:32;;;;;;;;;2.00;1.00;;;;;12.45;79.24;96933.25;5056775;28;45621;-71
2023/11/04 10:35:58;;;;;;;;;1.25;1.00;;;;;12.48;79.20;96932.13;5059821;28;45374;-70
2023/11/04 10:38:25;;;;;;;;;5.75;2.00;;;;;12.51;79.29;96924.78;5056309;28;71952;-71
2023/11/04 10:40:51;;;;;;;;;3.50;1.00;;;;;12.58;78.90;96916.34;5057907;28;68875;-70
2023/11/04 10:43:19;;;;;;;;;3.50;2.00;;;;;12.61;79.18;96906.38;5059068;28;60529;-70
2023/11/04 10:45:55;;;;;;;;;4.25;1.25;;;;;12.67;79.34;96899.69;5061693;28;45357;-70
2023/11/04 10:48:36;;;;;;;;;3.25;2.00;;;;;12.71;79.04;96896.66;5060372;28;45384;-71
2023/11/04 10:51:13;;;;;;;;;4.50;2.00;;;;;12.76;78.85;96895.38;5056429;28;46373;-75
2023/11/04 10:54:02;;;;;;;;;3.00;2.00;;;;;12.83;78.98;96880.66;5052484;28;45812;-70
2023/11/04 10:56:42;;;;;;;;;2.00;2.00;;;;;12.88;78.82;96867.91;5059888;28;45590;-70
2023/11/04 10:59:12;;;;;;;;;4.75;2.75;;;;;12.95;78.43;96870.78;5061528;28;45645;-69
2023/11/04 11:01:38;;;;;;;;;2.50;1.00;;;;;13.02;78.61;96872.63;5052626;28;47567;-70
2023/11/04 11:04:04;;;;;;;;;1.75;1.75;;;;;13.09;78.93;96876.28;5045097;28;45953;-69
2023/11/04 11:06:31;;;;;;;;;2.50;1.00;;;;;13.16;79.01;96873.88;5061681;28;45370;-70
2023/11/04 11:09:00;;;;;;;;;6.25;3.25;;;;;13.25;78.79;96887.91;5062261;28;45394;-68
2023/11/04 11:11:48;;;;;;;;;5.25;1.50;;;;;13.32;78.37;96894.22;5047847;28;47218;-69
2023/11/04 11:14:14;;;;;;;;;2.00;1.50;;;;;13.38;78.43;96896.22;5078975;28;45502;-69
2023/11/04 11:16:40;;;;;;;;;1.00;1.00;;;;;13.47;78.20;96894.47;5050370;28;68308;-69
2023/11/04 11:19:10;;;;;;;;;3.50;3.00;;;;;13.56;77.74;96895.34;5066589;28;45516;-69
2023/11/04 11:21:56;;;;;;;;;4.75;1.25;;;;;13.63;77.32;96896.38;5058357;28;45339;-69
2023/11/04 11:24:22;;;;;;;;;4.75;3.50;;;;;13.67;77.04;96887.22;5059807;28;45868;-70
2023/11/04 11:26:54;;;;;;;;;4.75;3.00;;;;;13.77;76.76;96873.94;5041966;28;45518;-70
2023/11/04 11:29:24;;;;;;;;;3.00;2.00;;;;;13.89;76.68;96874.50;5041029;28;45360;-70